HALF-HOURLY OBSERVATIONS INDEX

071

Southern Tablelands - Snowy Mtns

PERISHER VALLEY AWS

Site: 071075
Alt: 1738.0m
16km ENE of MT KOSCIUSZKO


  Time     Wind        Temp  DP   Baro     Rain since   Rain past  Vis(m), Cloud(base in m), Weather
  local        km/h                         9am  last   hr   10m    
Mon 11:00  WSW 11/ 22  18.2  2.1  ------    0.0   0.0   0.0   0.0   ----- 
Mon 11:30   SW  9/ 24  19.5  2.4  ------    0.0   0.0   0.0   0.0   ----- 
Mon 12:00   SW 11/ 20  19.8  3.1  ------    0.0   0.0   0.0   0.0   ----- 
Mon 12:30  SSW 13/ 30  19.5  5.9  ------    0.0   0.0   0.0   0.0   ----- 
Mon 13:00  SSE  7/ 19  20.1  7.5  ------    0.0   0.0   0.0   0.0   ----- 
Mon 13:30   NE  6/ 13  19.6  7.0  ------    0.0   0.0   0.0   0.0   ----- 
Mon 14:00    S  9/ 17  19.4  8.4  ------    0.0   0.0   0.0   0.0   ----- 
Mon 14:30    E  9/ 17  18.4  9.7  ------    0.0   0.0   0.0   0.0   ----- 
Mon 15:00    E  7/ 15  19.9  9.5  ------    0.0   0.0   0.0   0.0   ----- 
Mon 15:30   SE  9/ 24  20.6  9.2  ------    0.0   0.0   0.0   0.0   ----- 
Mon 16:00  ESE 11/ 19  19.7 10.4  ------    0.0   0.0   0.0   0.0   ----- 
Mon 16:30    E  9/ 15  19.0 10.0  ------    0.0   0.0   0.0   0.0   ----- 

THREDBO AWS

Site: 071032
Alt: 1957.0m
7km SE of MT KOSCIUSZKO


  Time     Wind        Temp  DP   Baro     Rain since   Rain past  Vis(m), Cloud(base in m), Weather
  local        km/h                         9am  last   hr   10m    
Mon 11:00  WSW 15/ 24  14.7  1.9  1024.2    0.0   0.0   0.0   0.0   ----- 
Mon 11:30    W 17/ 26  15.4  3.2  1024.5    0.0   0.0   0.0   0.0   ----- 
Mon 12:00    W 17/ 24  14.8  3.0  1024.6    0.0   0.0   0.0   0.0   ----- 
Mon 12:30  WSW 17/ 24  15.5  4.6  1024.6    0.0   0.0   0.0   0.0   ----- 
Mon 13:00    W 13/ 20  16.1  5.4  1024.5    0.0   0.0   0.0   0.0   ----- 
Mon 13:30  WSW 17/ 26  16.1  7.6  1024.5    0.0   0.0   0.0   0.0   ----- 
Mon 14:00  WSW 17/ 26  16.8  8.2  1024.5    0.0   0.0   0.0   0.0   ----- 
Mon 14:30   SW 13/ 22  17.5  8.4  1024.3    0.0   0.0   0.0   0.0   ----- 
Mon 15:00  WNW 11/ 24  17.0  7.6  1024.2    0.0   0.0   0.0   0.0   ----- 
Mon 15:30   NW  9/ 22  17.5  6.1  1024.0    0.0   0.0   0.0   0.0   ----- 
Mon 16:00  WSW 17/ 22  17.8  7.0  1024.1    0.0   0.0   0.0   0.0   ----- 
Mon 16:30  WNW  7/ 17  17.4  7.5  1024.0    0.0   0.0   0.0   0.0   -----